createdAt,value
2017-12-19T08:22:46.847Z,10
2017-12-19T08:23:18.882Z,10
2017-12-19T08:23:50.977Z,10
2017-12-19T08:24:23.055Z,5
2017-12-19T08:24:55.238Z,5
2017-12-19T08:25:27.345Z,5
2017-12-19T08:25:59.398Z,5
2017-12-19T08:26:31.491Z,5
2017-12-19T08:28:23.019Z,10
2017-12-19T08:28:55.102Z,10
2017-12-19T08:29:27.197Z,10
2017-12-19T08:29:59.301Z,10
2017-12-19T08:30:31.360Z,10
2017-12-19T08:31:03.428Z,10
2017-12-19T08:34:14.662Z,5
2017-12-19T08:34:46.768Z,5
2017-12-19T08:35:18.868Z,5
2017-12-19T08:37:10.346Z,5
2017-12-19T08:37:42.457Z,10
2017-12-19T08:38:14.540Z,10
2017-12-19T08:38:46.634Z,10
2017-12-19T08:39:18.838Z,10
2017-12-19T08:39:50.932Z,10
2017-12-19T08:40:23.029Z,10
2017-12-19T08:40:55.264Z,10
2017-12-19T08:41:27.354Z,10
2017-12-19T08:41:59.445Z,10
2017-12-19T08:42:31.539Z,10
2017-12-19T08:44:23.005Z,10
2017-12-19T08:44:55.090Z,10
2017-12-19T08:45:27.187Z,10
2017-12-19T08:45:59.374Z,10
2017-12-19T08:47:51.166Z,10
2017-12-19T08:48:23.273Z,10
2017-12-19T08:48:55.336Z,10
2017-12-19T08:49:27.417Z,10
2017-12-19T08:49:59.465Z,10
2017-12-19T08:50:31.540Z,10
2017-12-19T08:51:03.630Z,10
2017-12-19T08:51:35.727Z,15
2017-12-19T08:52:07.846Z,15
2017-12-19T08:52:39.918Z,15
2017-12-19T08:53:11.996Z,15
2017-12-19T08:55:03.579Z,15
2017-12-19T08:55:35.677Z,15
2017-12-19T08:56:07.783Z,15
2017-12-19T08:57:59.273Z,15
2017-12-19T08:59:50.847Z,15
2017-12-19T09:00:22.925Z,15
2017-12-19T09:00:55.016Z,15
2017-12-19T09:01:27.071Z,15
2017-12-19T09:01:59.150Z,15
2017-12-19T09:02:31.267Z,15
2017-12-19T09:03:03.313Z,15
2017-12-19T09:03:35.380Z,20
2017-12-19T09:04:07.449Z,20
2017-12-19T09:05:58.768Z,20
2017-12-19T09:06:30.855Z,25
2017-12-19T09:07:02.924Z,25
2017-12-19T09:07:35.009Z,25
2017-12-19T09:08:07.190Z,25
2017-12-19T09:08:39.254Z,25
2017-12-19T09:10:30.675Z,25
2017-12-19T09:11:02.785Z,25
2017-12-19T09:11:35.143Z,25
2017-12-19T09:12:08.799Z,25
2017-12-19T09:12:40.867Z,25
2017-12-19T09:13:12.958Z,25
2017-12-19T09:13:44.826Z,25
2017-12-19T09:14:16.890Z,25
2017-12-19T09:14:49.030Z,25
2017-12-19T09:15:21.138Z,25
2017-12-19T09:15:53.192Z,25
2017-12-19T09:16:25.275Z,25
2017-12-19T09:16:57.348Z,25
2017-12-19T09:17:29.448Z,25
2017-12-19T09:18:01.506Z,25
2017-12-19T09:18:34.503Z,25
2017-12-19T09:19:06.614Z,25
2017-12-19T09:19:38.745Z,25
2017-12-19T09:20:10.894Z,30
2017-12-19T09:20:42.977Z,30
2017-12-19T09:21:15.739Z,30
2017-12-19T09:21:47.836Z,30
2017-12-19T09:22:19.936Z,30
2017-12-19T09:24:11.450Z,25
2017-12-19T09:24:43.963Z,25
2017-12-19T09:25:16.057Z,25
2017-12-19T09:25:48.552Z,25
2017-12-19T09:26:20.753Z,25
2017-12-19T09:26:52.872Z,25
2017-12-19T09:27:25.027Z,25
2017-12-19T09:27:57.109Z,25
2017-12-19T09:28:29.203Z,25
2017-12-19T09:29:01.381Z,25
2017-12-19T09:29:33.556Z,25
2017-12-19T09:30:05.656Z,25
2017-12-19T09:30:37.902Z,25
2017-12-19T09:31:09.990Z,25
2017-12-19T09:31:42.062Z,25
2017-12-19T09:32:16.966Z,25
2017-12-19T09:32:49.152Z,25
2017-12-19T09:33:21.249Z,25
2017-12-19T09:33:53.406Z,25
2017-12-19T09:34:25.511Z,25
2017-12-19T09:34:57.672Z,25
2017-12-19T09:35:29.791Z,25
2017-12-19T09:36:01.884Z,25
2017-12-19T09:36:37.567Z,25
2017-12-19T09:38:29.020Z,30
2017-12-19T09:40:20.631Z,30
2017-12-19T09:40:52.731Z,30
2017-12-19T09:41:24.832Z,25
2017-12-19T09:41:57.473Z,25
2017-12-19T09:42:29.572Z,25
2017-12-19T09:43:01.637Z,25
2017-12-19T09:44:53.204Z,20
2017-12-19T09:45:25.283Z,20
2017-12-19T09:45:57.349Z,20
2017-12-19T09:46:29.459Z,25
2017-12-19T09:47:01.527Z,25
2017-12-19T09:47:33.620Z,25
2017-12-19T09:48:05.465Z,25
2017-12-19T09:48:37.576Z,25
2017-12-19T09:49:09.673Z,25
2017-12-19T09:49:41.772Z,25
2017-12-19T09:50:13.859Z,25
2017-12-19T09:52:05.374Z,30
2017-12-19T09:52:37.475Z,30
2017-12-19T09:53:09.551Z,30
2017-12-19T09:53:41.604Z,30
2017-12-19T09:55:33.302Z,30
2017-12-19T09:56:05.396Z,30
2017-12-19T09:56:37.484Z,30
2017-12-19T09:57:09.600Z,35
2017-12-19T09:57:41.682Z,35
2017-12-19T09:58:13.792Z,35
2017-12-19T09:58:45.909Z,35
2017-12-19T10:00:37.704Z,35
2017-12-19T10:01:09.781Z,35
2017-12-19T10:01:41.826Z,35
2017-12-19T10:02:13.870Z,35
2017-12-19T10:02:45.941Z,30
2017-12-19T10:03:18.024Z,35
2017-12-19T10:03:50.082Z,35
2017-12-19T10:04:22.157Z,35
2017-12-19T10:04:54.216Z,35
2017-12-19T10:05:26.286Z,35
2017-12-19T10:05:58.348Z,35
2017-12-19T10:06:30.462Z,35
2017-12-19T10:07:02.530Z,35
2017-12-19T10:07:34.584Z,35
2017-12-19T10:08:06.764Z,35
2017-12-19T10:08:38.827Z,35
2017-12-19T10:09:10.885Z,35
2017-12-19T10:11:04.792Z,35
2017-12-19T10:11:46.289Z,35
2017-12-19T10:13:38.390Z,35
2017-12-19T10:14:10.472Z,40
2017-12-19T10:14:42.533Z,40
2017-12-19T10:16:34.317Z,35
2017-12-19T10:17:15.052Z,35
2017-12-19T10:17:53.777Z,30
2017-12-19T10:18:35.286Z,30
2017-12-19T10:19:09.280Z,30
2017-12-19T10:19:42.327Z,35
2017-12-19T10:20:17.316Z,35
2017-12-19T10:20:50.310Z,40
2017-12-19T10:21:23.424Z,45
2017-12-19T10:21:56.602Z,45
2017-12-19T10:22:30.009Z,45
2017-12-19T10:24:22.629Z,55
2017-12-19T10:24:56.348Z,55
2017-12-19T10:25:29.607Z,55
2017-12-19T10:27:22.153Z,55
2017-12-19T10:27:55.529Z,55
2017-12-19T10:28:28.928Z,55
2017-12-19T10:29:02.218Z,55
2017-12-19T10:29:35.442Z,55
2017-12-19T10:30:08.688Z,55
2017-12-19T10:30:41.995Z,55
2017-12-19T10:31:15.308Z,50
2017-12-19T10:31:48.614Z,50
2017-12-19T10:32:23.096Z,50
2017-12-19T10:32:59.410Z,45
2017-12-19T10:33:32.619Z,45
2017-12-19T10:34:06.013Z,45
2017-12-19T10:34:41.350Z,45
2017-12-19T10:35:15.825Z,45
2017-12-19T10:37:08.658Z,45
2017-12-19T10:37:42.078Z,45
2017-12-19T10:38:15.239Z,50
2017-12-19T10:38:48.454Z,45
2017-12-19T10:39:21.557Z,45
2017-12-19T10:39:54.825Z,45
2017-12-19T10:40:27.176Z,40
2017-12-19T10:41:02.844Z,40
2017-12-19T10:41:35.166Z,40
2017-12-19T10:42:07.550Z,35
2017-12-19T10:42:40.589Z,30
2017-12-19T10:43:13.517Z,30
2017-12-19T10:43:46.516Z,30
2017-12-19T10:44:21.287Z,35
2017-12-19T10:44:54.593Z,35
2017-12-19T10:45:27.519Z,40
2017-12-19T10:46:00.168Z,40
2017-12-19T10:46:35.553Z,40
2017-12-19T10:48:29.552Z,40
2017-12-19T10:49:03.302Z,40
2017-12-19T10:49:36.447Z,35
2017-12-19T10:50:09.357Z,35
2017-12-19T10:50:42.284Z,30
2017-12-19T10:51:14.527Z,35
2017-12-19T10:51:50.025Z,35
2017-12-19T10:52:25.099Z,35
2017-12-19T10:52:57.269Z,40
2017-12-19T10:53:30.054Z,40
2017-12-19T10:54:02.292Z,45
2017-12-19T10:55:53.640Z,50
2017-12-19T10:56:25.695Z,50
2017-12-19T10:56:57.784Z,45
2017-12-19T10:58:49.473Z,55
2017-12-19T10:59:21.502Z,50
2017-12-19T11:01:13.164Z,45
2017-12-19T11:03:04.873Z,45
2017-12-19T11:03:36.945Z,45
2017-12-19T11:04:09.044Z,45
2017-12-19T11:06:02.128Z,45
2017-12-19T11:06:34.261Z,40
2017-12-19T11:07:06.354Z,40
2017-12-19T11:07:38.422Z,40
2017-12-19T11:08:10.527Z,40
2017-12-19T11:08:42.644Z,45
2017-12-19T11:09:14.692Z,50
2017-12-19T11:11:06.418Z,45
2017-12-19T11:11:38.480Z,50
2017-12-19T11:12:10.621Z,50
2017-12-19T11:14:02.087Z,45
2017-12-19T11:14:34.188Z,50
2017-12-19T11:15:06.304Z,50
2017-12-19T11:15:38.376Z,45
2017-12-19T11:17:30.127Z,35
2017-12-19T11:18:02.205Z,35
2017-12-19T11:18:34.293Z,30
2017-12-19T11:19:06.346Z,30
2017-12-19T11:19:38.448Z,30
2017-12-19T11:20:10.534Z,30
2017-12-19T11:20:42.651Z,30
2017-12-19T11:21:14.756Z,30
2017-12-19T11:21:46.833Z,30
2017-12-19T11:22:18.912Z,30
2017-12-19T11:22:50.997Z,25
2017-12-19T11:23:23.109Z,25
2017-12-19T11:23:55.206Z,25
2017-12-19T11:24:27.296Z,30
2017-12-19T11:25:02.452Z,25
2017-12-19T11:25:37.527Z,25
2017-12-19T11:26:11.517Z,20
2017-12-19T11:26:43.579Z,20
2017-12-19T11:27:15.657Z,20
2017-12-19T11:27:47.696Z,25
2017-12-19T11:28:19.747Z,25
2017-12-19T11:28:51.796Z,30
2017-12-19T11:30:43.434Z,30
2017-12-19T11:32:34.931Z,35
2017-12-19T11:33:06.974Z,30
2017-12-19T11:33:39.009Z,30
2017-12-19T11:34:11.095Z,30
2017-12-19T11:34:43.205Z,30
2017-12-19T11:35:15.305Z,30
2017-12-19T11:35:47.393Z,30
2017-12-19T11:36:19.434Z,30
2017-12-19T11:36:51.482Z,30
2017-12-19T11:37:23.548Z,30
2017-12-19T11:37:55.627Z,35
2017-12-19T11:38:27.702Z,35
2017-12-19T11:38:59.811Z,35
2017-12-19T11:39:31.920Z,35
2017-12-19T11:40:03.991Z,35
2017-12-19T11:40:36.080Z,35
2017-12-19T11:41:08.185Z,35
2017-12-19T11:41:40.392Z,35
2017-12-19T11:42:12.466Z,35
2017-12-19T11:42:44.562Z,40
2017-12-19T11:43:16.686Z,40
2017-12-19T11:43:48.816Z,35
2017-12-19T11:44:22.072Z,40
2017-12-19T11:44:54.176Z,40
2017-12-19T11:46:45.760Z,40
2017-12-19T11:47:17.832Z,40
2017-12-19T11:47:49.891Z,45
2017-12-19T11:48:21.959Z,45
2017-12-19T11:48:54.019Z,50
2017-12-19T11:49:26.079Z,50
2017-12-19T11:49:58.126Z,50
2017-12-19T11:50:30.195Z,50
2017-12-19T11:51:02.236Z,55
2017-12-19T11:51:34.285Z,55
2017-12-19T11:52:06.416Z,55
2017-12-19T11:53:57.835Z,50
2017-12-19T11:54:29.880Z,50
2017-12-19T11:56:21.342Z,50
2017-12-19T11:56:53.387Z,60
2017-12-19T11:57:25.453Z,60
2017-12-19T11:57:57.524Z,55
2017-12-19T11:58:29.552Z,50
2017-12-19T11:59:01.614Z,40
2017-12-19T12:00:53.201Z,45
2017-12-19T12:01:25.287Z,55
2017-12-19T12:01:57.445Z,55
2017-12-19T12:02:29.497Z,55
2017-12-19T12:04:20.864Z,55
2017-12-19T12:04:52.950Z,50
2017-12-19T12:05:25.035Z,50
2017-12-19T12:05:57.105Z,50
2017-12-19T12:06:29.147Z,50
2017-12-19T12:07:01.262Z,50
2017-12-19T12:07:33.355Z,50
2017-12-19T12:08:05.427Z,65
2017-12-19T12:08:37.459Z,65
2017-12-19T12:10:29.093Z,50
2017-12-19T12:11:01.120Z,55
2017-12-19T12:11:33.155Z,65
2017-12-19T12:13:24.781Z,75
2017-12-19T12:13:56.799Z,65
2017-12-19T12:14:28.854Z,55
2017-12-19T12:16:20.618Z,65
2017-12-19T12:18:12.149Z,70
2017-12-19T12:18:44.224Z,75
2017-12-19T12:19:16.258Z,70
2017-12-19T12:19:48.297Z,65
2017-12-19T12:20:20.338Z,60
2017-12-19T12:20:52.397Z,60
2017-12-19T12:22:43.965Z,60
2017-12-19T12:23:16.006Z,55
2017-12-19T12:23:48.056Z,50
2017-12-19T12:24:20.079Z,55
2017-12-19T12:24:52.120Z,55
2017-12-19T12:25:24.148Z,55
2017-12-19T12:25:56.197Z,50
2017-12-19T12:26:28.254Z,45
2017-12-19T12:27:00.403Z,40
2017-12-19T12:27:32.487Z,45
2017-12-19T12:28:04.562Z,45
2017-12-19T12:28:36.621Z,45
2017-12-19T12:29:11.616Z,40
2017-12-19T12:31:03.284Z,40
2017-12-19T12:31:35.339Z,45
2017-12-19T12:32:07.407Z,40
2017-12-19T12:32:39.461Z,35
2017-12-19T12:33:11.547Z,30
2017-12-19T12:33:43.564Z,30
2017-12-19T12:34:15.633Z,30
2017-12-19T12:34:47.704Z,30
2017-12-19T12:35:19.735Z,30
2017-12-19T12:35:51.762Z,30
2017-12-19T12:36:23.827Z,30
2017-12-19T12:36:55.892Z,30
2017-12-19T12:37:27.922Z,30
2017-12-19T12:37:59.958Z,30
2017-12-19T12:38:32.032Z,30
2017-12-19T12:39:04.076Z,30
2017-12-19T12:39:36.100Z,25
2017-12-19T12:40:08.155Z,20
2017-12-19T12:40:40.191Z,20
2017-12-19T12:41:12.257Z,20
2017-12-19T12:41:44.323Z,25
2017-12-19T12:42:16.389Z,25
2017-12-19T12:42:48.415Z,25
2017-12-19T12:43:20.472Z,25
2017-12-19T12:43:52.502Z,25
2017-12-19T12:44:24.529Z,30
2017-12-19T12:44:56.592Z,30
2017-12-19T12:45:28.638Z,25
2017-12-19T12:46:00.696Z,25
2017-12-19T12:47:52.117Z,20
2017-12-19T12:48:24.145Z,25
2017-12-19T12:48:56.213Z,25
2017-12-19T12:49:28.282Z,25
2017-12-19T12:50:00.321Z,25
2017-12-19T12:50:32.373Z,25
2017-12-19T12:51:04.434Z,25
2017-12-19T12:51:36.522Z,30
2017-12-19T12:53:28.148Z,35
2017-12-19T12:54:00.205Z,30
2017-12-19T12:54:32.269Z,30
2017-12-19T12:55:04.374Z,30
2017-12-19T12:55:36.440Z,25
2017-12-19T12:56:08.485Z,25
2017-12-19T12:56:40.629Z,25
2017-12-19T12:57:12.611Z,25
2017-12-19T12:57:44.651Z,20
2017-12-19T12:59:36.157Z,20
2017-12-19T13:00:08.230Z,20
2017-12-19T13:01:59.987Z,15
2017-12-19T13:02:32.019Z,15
2017-12-19T13:03:04.102Z,20
2017-12-19T13:03:36.321Z,20
2017-12-19T13:04:08.358Z,25
2017-12-19T13:04:40.472Z,25
2017-12-19T13:05:12.459Z,20
2017-12-19T13:05:44.500Z,20
2017-12-19T13:06:16.567Z,25
2017-12-19T13:06:48.658Z,25
2017-12-19T13:07:20.758Z,25
2017-12-19T13:07:52.845Z,25
2017-12-19T13:08:24.945Z,20
2017-12-19T13:08:57.052Z,20
2017-12-19T13:09:29.129Z,25
2017-12-19T13:10:01.195Z,25
2017-12-19T13:10:33.232Z,30
2017-12-19T13:11:05.323Z,30
2017-12-19T13:12:56.662Z,25
2017-12-19T13:13:28.769Z,25
2017-12-19T13:14:00.864Z,25
2017-12-19T13:14:32.960Z,25
2017-12-19T13:15:05.016Z,25
2017-12-19T13:15:37.122Z,25
2017-12-19T13:16:09.224Z,25
2017-12-19T13:16:41.315Z,20
2017-12-19T13:17:13.470Z,20
2017-12-19T13:17:45.558Z,20
2017-12-19T13:18:17.645Z,20
2017-12-19T13:18:49.720Z,25
2017-12-19T13:19:21.799Z,20
2017-12-19T13:19:53.891Z,20
2017-12-19T13:20:25.983Z,25
2017-12-19T13:20:58.126Z,30
2017-12-19T13:21:30.199Z,30
2017-12-19T13:23:21.841Z,35
2017-12-19T13:23:53.945Z,30
2017-12-19T13:25:45.643Z,40
2017-12-19T13:26:17.741Z,40
2017-12-19T13:26:49.870Z,40
2017-12-19T13:28:41.507Z,35
2017-12-19T13:29:13.600Z,35
2017-12-19T13:29:45.704Z,35
2017-12-19T13:30:17.814Z,30
2017-12-19T13:30:49.898Z,30
2017-12-19T13:32:41.269Z,25
2017-12-19T13:33:13.337Z,25
2017-12-19T13:33:45.403Z,25
2017-12-19T13:35:36.842Z,30
2017-12-19T13:36:08.935Z,25
2017-12-19T13:36:41.016Z,25
2017-12-19T13:37:13.067Z,25
2017-12-19T13:39:04.677Z,25
2017-12-19T13:39:36.785Z,25
2017-12-19T13:40:08.878Z,25
2017-12-19T13:40:40.989Z,25
2017-12-19T13:41:13.081Z,20
2017-12-19T13:41:45.171Z,20
2017-12-19T13:42:17.242Z,20
2017-12-19T13:42:49.346Z,25
2017-12-19T13:44:40.660Z,20
2017-12-19T13:45:12.739Z,20
2017-12-19T13:45:44.818Z,20
2017-12-19T13:46:16.917Z,20
2017-12-19T13:46:49.005Z,20
2017-12-19T13:50:00.018Z,15
2017-12-19T13:53:10.994Z,10
2017-12-19T13:55:02.755Z,10
2017-12-19T13:55:34.854Z,10
2017-12-19T13:56:06.974Z,10
2017-12-19T13:57:58.519Z,10
2017-12-19T14:01:09.428Z,10
2017-12-19T14:01:41.553Z,10
2017-12-19T14:03:33.341Z,10
2017-12-19T14:04:05.478Z,10
2017-12-19T14:04:37.738Z,10
2017-12-19T14:05:09.838Z,15
2017-12-19T14:07:02.140Z,20
2017-12-19T14:07:34.966Z,20
2017-12-19T14:09:26.602Z,25
2017-12-19T14:09:58.742Z,30
2017-12-19T14:10:30.845Z,30
2017-12-19T14:11:02.933Z,25
2017-12-19T14:11:35.039Z,25
2017-12-19T14:12:07.133Z,30
2017-12-19T14:12:39.236Z,30
2017-12-19T14:14:31.134Z,30
2017-12-19T14:15:03.312Z,30
2017-12-19T14:15:35.404Z,30
2017-12-19T14:16:07.558Z,30
2017-12-19T14:17:59.279Z,25
2017-12-19T14:18:31.449Z,25
2017-12-19T14:19:03.509Z,25
2017-12-19T14:20:55.306Z,20
2017-12-19T14:22:59.032Z,20
2017-12-19T14:23:31.121Z,20
2017-12-19T14:24:03.294Z,20
2017-12-19T14:24:35.426Z,15
2017-12-19T14:25:07.616Z,15
2017-12-19T14:25:39.802Z,15
2017-12-19T14:26:11.933Z,20
2017-12-19T14:26:44.015Z,20
2017-12-19T14:27:23.478Z,20
2017-12-19T14:27:55.630Z,15
2017-12-19T14:29:46.950Z,15
2017-12-19T14:30:19.124Z,15
2017-12-19T14:30:51.196Z,10
2017-12-19T14:32:46.551Z,15
2017-12-19T14:33:18.702Z,15
2017-12-19T14:35:10.369Z,10
2017-12-19T14:35:42.492Z,10
2017-12-19T14:36:14.541Z,10
2017-12-19T14:36:46.623Z,10
2017-12-19T14:37:18.849Z,5
2017-12-19T14:37:50.918Z,5
2017-12-19T14:39:42.296Z,10
2017-12-19T14:40:14.363Z,10
2017-12-19T14:40:46.426Z,10
2017-12-19T14:41:18.523Z,10
2017-12-19T14:41:50.622Z,10
2017-12-19T14:42:22.663Z,10
2017-12-19T14:42:54.754Z,10
2017-12-19T14:44:46.376Z,5
2017-12-19T14:45:18.486Z,5
2017-12-19T14:45:50.543Z,5
2017-12-19T14:46:22.645Z,5
2017-12-19T14:46:54.744Z,5
2017-12-19T14:47:26.844Z,5
2017-12-19T14:47:58.942Z,5
2017-12-19T14:48:31.009Z,5
2017-12-19T14:49:03.114Z,5
2017-12-19T14:50:54.555Z,5
2017-12-19T14:51:26.642Z,5
2017-12-19T14:51:58.731Z,5
2017-12-19T14:52:30.835Z,5
2017-12-19T14:53:02.883Z,5
2017-12-19T14:54:54.464Z,5
2017-12-19T14:55:26.548Z,5
2017-12-19T14:55:58.655Z,5
2017-12-19T14:56:30.751Z,0
2017-12-19T14:57:02.808Z,0
2017-12-19T14:57:34.898Z,0
2017-12-19T14:58:07.010Z,0
2017-12-19T14:59:58.393Z,0
2017-12-19T15:00:30.490Z,0
2017-12-19T15:01:02.569Z,0
2017-12-19T15:01:34.671Z,0
2017-12-19T15:02:06.777Z,0
2017-12-19T15:02:38.875Z,0
2017-12-19T15:03:10.935Z,0
2017-12-19T15:03:43.021Z,0
2017-12-19T15:04:15.107Z,0
2017-12-19T15:04:47.213Z,0
2017-12-19T15:05:19.302Z,0
2017-12-19T15:08:29.959Z,0
2017-12-19T15:09:02.048Z,0
2017-12-19T15:09:34.126Z,0
2017-12-19T15:10:06.219Z,0
2017-12-19T15:10:38.279Z,0
2017-12-19T15:11:10.388Z,0
2017-12-19T15:13:01.711Z,0
2017-12-19T15:13:33.804Z,0
2017-12-19T15:14:05.903Z,0
2017-12-19T15:14:37.993Z,0
2017-12-19T15:15:10.073Z,0
2017-12-19T15:15:42.170Z,0
2017-12-19T15:17:33.486Z,0
2017-12-19T15:18:05.582Z,0
2017-12-19T15:19:56.988Z,0
2017-12-19T15:20:29.085Z,0
2017-12-19T15:21:01.152Z,0
2017-12-19T15:21:33.241Z,0
2017-12-19T15:22:05.322Z,0
2017-12-19T15:23:56.740Z,0
2017-12-19T15:24:28.830Z,0
2017-12-19T15:25:00.913Z,0
2017-12-19T15:25:33.017Z,0
2017-12-19T15:26:05.117Z,0
2017-12-19T15:26:37.201Z,0
2017-12-19T15:27:09.284Z,0
2017-12-19T15:27:41.363Z,0
2017-12-19T15:28:13.470Z,0
2017-12-19T15:28:45.461Z,0
2017-12-19T15:29:17.465Z,0
2017-12-19T15:29:49.483Z,0
2017-12-19T15:30:21.513Z,0
2017-12-19T15:30:53.531Z,0
2017-12-19T15:31:25.581Z,0
2017-12-19T15:31:57.583Z,0
2017-12-19T15:32:29.613Z,0
2017-12-19T15:33:01.612Z,0
2017-12-19T15:33:33.596Z,0
2017-12-19T15:34:05.612Z,0
2017-12-19T15:34:37.710Z,0
2017-12-19T15:35:09.836Z,0
2017-12-19T15:35:41.850Z,0
2017-12-19T15:36:13.847Z,0
2017-12-19T15:36:45.864Z,0
2017-12-19T15:37:17.812Z,0
2017-12-19T15:37:49.748Z,0
2017-12-19T15:38:21.752Z,0
2017-12-19T15:38:53.730Z,0
2017-12-19T15:39:25.780Z,0
2017-12-19T15:39:57.785Z,0
2017-12-19T15:40:29.808Z,0
2017-12-19T15:41:01.826Z,0
2017-12-19T15:41:33.874Z,0
2017-12-19T15:42:05.859Z,0
2017-12-19T15:42:37.860Z,0
2017-12-19T15:43:09.801Z,0
2017-12-19T15:43:41.904Z,0
2017-12-19T15:44:13.975Z,0
2017-12-19T15:44:45.960Z,0
2017-12-19T15:45:17.906Z,0
2017-12-19T15:45:50.074Z,0
2017-12-19T15:46:22.222Z,0
2017-12-19T15:46:54.225Z,0
2017-12-19T15:47:26.296Z,0
2017-12-19T15:47:58.275Z,0
2017-12-19T15:48:30.386Z,0
2017-12-19T15:49:02.483Z,0
2017-12-19T15:49:34.515Z,0
2017-12-19T15:50:06.532Z,0
2017-12-19T15:50:38.542Z,0
2017-12-19T15:51:11.488Z,0
2017-12-19T15:51:43.475Z,0
2017-12-19T15:52:15.506Z,0
2017-12-19T15:52:47.542Z,0
2017-12-19T15:53:19.560Z,0
2017-12-19T15:53:51.599Z,0
2017-12-19T15:54:23.630Z,0
2017-12-19T15:54:55.758Z,0
2017-12-19T15:55:27.696Z,0
2017-12-19T15:55:59.789Z,0
2017-12-19T15:56:31.739Z,0
2017-12-19T15:57:03.763Z,0
2017-12-19T15:57:35.738Z,0
2017-12-19T15:58:07.701Z,0
2017-12-19T15:58:39.739Z,0
2017-12-19T15:59:11.758Z,0
2017-12-19T15:59:44.665Z,0
2017-12-19T16:00:16.646Z,0
2017-12-19T16:00:48.661Z,0
2017-12-19T16:01:20.647Z,0
2017-12-19T16:01:52.636Z,0
2017-12-19T16:02:24.638Z,0
2017-12-19T16:02:56.616Z,0
2017-12-19T16:03:28.599Z,0
2017-12-19T16:04:00.600Z,0
2017-12-19T16:04:32.660Z,0
2017-12-19T16:05:04.690Z,0
2017-12-19T16:05:36.692Z,0
2017-12-19T16:06:08.702Z,0
2017-12-19T16:06:40.700Z,0
2017-12-19T16:07:12.718Z,0
2017-12-19T16:07:44.721Z,0
2017-12-19T16:08:16.708Z,0
2017-12-19T16:08:48.648Z,0
2017-12-19T16:09:20.625Z,0
2017-12-19T16:09:52.587Z,0
2017-12-19T16:10:24.664Z,0
2017-12-19T16:10:56.655Z,0
2017-12-19T16:11:28.664Z,0
2017-12-19T16:12:00.698Z,0
2017-12-19T16:12:32.775Z,0
2017-12-19T16:13:04.773Z,0
2017-12-19T16:13:36.798Z,0
2017-12-19T16:14:08.789Z,0
2017-12-19T16:14:40.761Z,0
2017-12-19T16:15:12.789Z,0
2017-12-19T16:15:44.784Z,0
2017-12-19T16:16:16.765Z,0
2017-12-19T16:16:48.777Z,0
2017-12-19T16:17:20.948Z,0
2017-12-19T16:17:52.915Z,0
2017-12-19T16:18:24.921Z,0
2017-12-19T16:18:56.905Z,0
2017-12-19T16:19:28.901Z,0
2017-12-19T16:20:00.930Z,0
2017-12-19T16:20:32.932Z,0
2017-12-19T16:21:04.956Z,0
2017-12-19T16:21:36.984Z,0
2017-12-19T16:22:09.006Z,0
2017-12-19T16:22:41.011Z,0
2017-12-19T16:23:12.966Z,0
2017-12-19T16:23:44.951Z,0
2017-12-19T16:24:16.946Z,0
2017-12-19T16:24:48.996Z,0
2017-12-19T16:25:20.969Z,0
2017-12-19T16:25:52.979Z,0
2017-12-19T16:26:24.994Z,0
2017-12-19T16:26:57.001Z,0
2017-12-19T16:27:29.032Z,0
2017-12-19T16:28:01.035Z,0
2017-12-19T16:28:33.009Z,0
2017-12-19T16:29:04.984Z,0
2017-12-19T16:29:36.987Z,0
2017-12-19T16:30:09.012Z,0
2017-12-19T16:30:41.108Z,0
2017-12-19T16:31:13.183Z,0
2017-12-19T16:31:45.195Z,0
2017-12-19T16:32:17.236Z,0
2017-12-19T16:32:49.242Z,0
2017-12-19T16:33:21.235Z,0
2017-12-19T16:33:53.253Z,0
2017-12-19T16:34:25.874Z,0
2017-12-19T16:34:58.801Z,0
2017-12-19T16:35:30.828Z,0
2017-12-19T16:36:02.760Z,0
2017-12-19T16:36:34.776Z,0
2017-12-19T16:37:06.880Z,0
2017-12-19T16:37:38.893Z,0
2017-12-19T16:38:10.924Z,0
2017-12-19T16:38:42.917Z,0
2017-12-19T16:39:14.922Z,0
2017-12-19T16:39:46.919Z,0
2017-12-19T16:40:18.983Z,0
2017-12-19T16:40:50.994Z,0
2017-12-19T16:41:22.985Z,0
2017-12-19T16:41:54.974Z,0
2017-12-19T16:42:27.000Z,0
2017-12-19T16:42:59.037Z,0
2017-12-19T16:43:31.102Z,0
2017-12-19T16:44:03.118Z,0
2017-12-19T16:44:35.149Z,0
2017-12-19T16:45:07.176Z,0
2017-12-19T16:45:39.165Z,0
2017-12-19T16:46:11.158Z,0
2017-12-19T16:46:43.147Z,0
2017-12-19T16:47:15.174Z,0
2017-12-19T16:47:47.208Z,0
2017-12-19T16:48:19.244Z,0
2017-12-19T16:48:51.247Z,0
2017-12-19T16:49:23.294Z,0
2017-12-19T16:49:55.278Z,0
2017-12-19T16:50:27.804Z,0
2017-12-19T16:50:59.803Z,0
2017-12-19T16:51:31.905Z,0
2017-12-19T16:52:04.056Z,0
2017-12-19T16:52:36.152Z,0
2017-12-19T16:53:08.197Z,0
2017-12-19T16:53:40.198Z,0
2017-12-19T16:54:12.198Z,0
2017-12-19T16:54:44.220Z,0
2017-12-19T16:55:16.182Z,0
2017-12-19T16:55:48.232Z,0
2017-12-19T16:56:20.267Z,0
2017-12-19T16:56:52.244Z,0
2017-12-19T16:57:24.260Z,0
2017-12-19T16:57:56.282Z,0
2017-12-19T16:58:28.327Z,0
2017-12-19T16:59:00.378Z,0
2017-12-19T16:59:32.446Z,0
2017-12-19T17:00:04.504Z,0
2017-12-19T17:00:36.493Z,0
2017-12-19T17:01:09.466Z,0
2017-12-19T17:01:41.511Z,0
2017-12-19T17:02:13.550Z,0
2017-12-19T17:02:45.561Z,0
2017-12-19T17:03:17.568Z,0
2017-12-19T17:03:49.621Z,0
2017-12-19T17:04:21.738Z,0
2017-12-19T17:04:53.765Z,0
2017-12-19T17:05:25.819Z,0
2017-12-19T17:05:57.826Z,0
2017-12-19T17:06:29.843Z,0
2017-12-19T17:07:01.859Z,0
2017-12-19T17:07:33.883Z,0
2017-12-19T17:08:05.988Z,0
2017-12-19T17:08:38.009Z,0
2017-12-19T17:09:09.981Z,0
2017-12-19T17:09:41.996Z,0
2017-12-19T17:10:13.994Z,0
2017-12-19T17:10:46.002Z,0
2017-12-19T17:11:18.021Z,0
2017-12-19T17:11:50.076Z,0
2017-12-19T17:12:22.065Z,0
2017-12-19T17:12:54.171Z,0
2017-12-19T17:13:26.186Z,0
2017-12-19T17:13:58.222Z,0
2017-12-19T17:14:30.235Z,0
2017-12-19T17:15:02.239Z,0
2017-12-19T17:15:34.241Z,0
2017-12-19T17:16:07.107Z,0
2017-12-19T17:16:39.108Z,0
2017-12-19T17:17:11.155Z,0
2017-12-19T17:17:43.162Z,0
2017-12-19T17:18:15.162Z,0
2017-12-19T17:18:47.189Z,0
2017-12-19T17:19:19.228Z,0
2017-12-19T17:19:51.185Z,0
2017-12-19T17:20:23.175Z,0
2017-12-19T17:20:55.157Z,0
2017-12-19T17:21:27.248Z,0
2017-12-19T17:21:59.233Z,0
2017-12-19T17:22:31.361Z,0
2017-12-19T17:23:03.366Z,0
2017-12-19T17:23:35.359Z,0
2017-12-19T17:24:07.367Z,0
2017-12-19T17:24:39.346Z,0
2017-12-19T17:25:11.387Z,0
2017-12-19T17:25:43.475Z,0
2017-12-19T17:26:15.585Z,0
2017-12-19T17:26:47.604Z,0
2017-12-19T17:27:19.631Z,0
2017-12-19T17:27:51.650Z,0
2017-12-19T17:28:23.650Z,0
2017-12-19T17:28:55.647Z,0
2017-12-19T17:29:27.644Z,0
2017-12-19T17:30:00.243Z,0
2017-12-19T17:30:32.250Z,0
2017-12-19T17:31:04.218Z,0
2017-12-19T17:31:36.233Z,0
2017-12-19T17:32:08.226Z,0
2017-12-19T17:32:40.263Z,0
2017-12-19T17:33:13.135Z,0
2017-12-19T17:33:45.169Z,0
2017-12-19T17:34:17.736Z,0
2017-12-19T17:34:49.763Z,0
2017-12-19T17:35:21.745Z,0
2017-12-19T17:35:53.732Z,0
2017-12-19T17:36:25.731Z,0
2017-12-19T17:36:57.717Z,0
2017-12-19T17:37:29.744Z,0
2017-12-19T17:38:01.754Z,0
2017-12-19T17:38:33.761Z,0
2017-12-19T17:39:05.742Z,0
2017-12-19T17:39:37.730Z,0
2017-12-19T17:40:09.719Z,0
2017-12-19T17:40:41.728Z,0
2017-12-19T17:41:13.763Z,0
2017-12-19T17:41:45.793Z,0
2017-12-19T17:42:17.825Z,0
2017-12-19T17:42:49.879Z,0
2017-12-19T17:43:21.944Z,0
2017-12-19T17:43:53.952Z,0
2017-12-19T17:44:25.942Z,0
2017-12-19T17:44:58.775Z,0
2017-12-19T17:45:30.798Z,0
2017-12-19T17:46:02.863Z,0
2017-12-19T17:46:34.851Z,0
2017-12-19T17:47:06.858Z,0
2017-12-19T17:47:38.872Z,0
2017-12-19T17:48:10.979Z,0
2017-12-19T17:48:42.972Z,0
2017-12-19T17:49:14.953Z,0
2017-12-19T17:49:47.535Z,0
2017-12-19T17:50:19.518Z,0
2017-12-19T17:50:51.531Z,0
2017-12-19T17:51:23.535Z,0
2017-12-19T17:51:55.561Z,0
2017-12-19T17:52:27.529Z,0
2017-12-19T17:52:59.544Z,0
2017-12-19T17:53:32.338Z,0
2017-12-19T17:54:04.347Z,0
2017-12-19T17:54:36.415Z,0
2017-12-19T17:55:08.451Z,0
2017-12-19T17:55:40.555Z,0
2017-12-19T17:56:12.554Z,0
2017-12-19T17:56:44.562Z,0
2017-12-19T17:57:16.581Z,0
2017-12-19T17:57:48.564Z,0
2017-12-19T17:58:20.519Z,0
2017-12-19T17:58:52.465Z,0
2017-12-19T17:59:24.444Z,0
2017-12-19T17:59:56.447Z,0
2017-12-19T18:00:28.476Z,0
2017-12-19T18:01:00.499Z,0
2017-12-19T18:01:32.622Z,0
2017-12-19T18:02:04.631Z,0
2017-12-19T18:02:37.197Z,0
2017-12-19T18:03:09.187Z,0
2017-12-19T18:03:41.186Z,0
2017-12-19T18:04:13.172Z,0
2017-12-19T18:04:45.163Z,0